Time;durP1;ratioP1;P1;durP2;ratioP2;P2;SDS_P1;SDS_P2;PMS_P1;PMS_P2;Temp;Humidity;BMP_temperature;BMP_pressure;BME280_temperature;BME280_humidity;BME280_pressure;Samples;Min_cycle;Max_cycle;Signal;HPM_P1;HPM_P2
2022/04/12 00:00:23;;;;;;;8.48;7.22;;;10.70;86.40;;;;;;5048292;28;20617;-42
2022/04/12 00:02:49;;;;;;;9.40;7.47;;;10.70;86.60;;;;;;5047753;28;20111;-42
2022/04/12 00:05:15;;;;;;;11.13;7.03;;;10.60;86.60;;;;;;5048463;28;20082;-41
2022/04/12 00:07:42;;;;;;;10.25;7.40;;;10.60;86.70;;;;;;5047973;28;20055;-40
2022/04/12 00:10:09;;;;;;;10.90;7.65;;;10.60;86.80;;;;;;5048808;28;20032;-42
2022/04/12 00:12:35;;;;;;;11.93;7.95;;;10.50;86.80;;;;;;5047445;28;20021;-42
2022/04/12 00:15:02;;;;;;;8.75;7.00;;;10.60;87.00;;;;;;5048021;28;20475;-40
2022/04/12 00:20:12;;;;;;;11.70;7.15;;;10.50;87.10;;;;;;5047943;28;20044;-43
2022/04/12 00:22:38;;;;;;;9.15;7.22;;;10.50;87.20;;;;;;5048070;28;20388;-41
2022/04/12 00:25:07;;;;;;;9.88;6.95;;;10.40;87.30;;;;;;5047795;28;20573;-43
2022/04/12 00:27:33;;;;;;;9.60;7.78;;;10.50;87.40;;;;;;5047451;28;20686;-43
2022/04/12 00:29:58;;;;;;;10.15;7.07;;;10.40;87.50;;;;;;5047572;28;20025;-41
2022/04/12 00:32:24;;;;;;;9.20;7.10;;;10.40;87.50;;;;;;5048026;28;20036;-42
2022/04/12 00:34:49;;;;;;;8.15;6.70;;;10.40;87.60;;;;;;5047206;28;20120;-42
2022/04/12 00:37:15;;;;;;;9.85;7.22;;;10.40;87.60;;;;;;5047879;28;20025;-44
2022/04/12 00:39:40;;;;;;;9.65;6.75;;;10.40;87.70;;;;;;5047769;28;20539;-42
2022/04/12 00:42:06;;;;;;;9.63;6.88;;;10.40;87.80;;;;;;5047230;28;20154;-42
2022/04/12 00:44:32;;;;;;;7.95;6.80;;;10.40;87.80;;;;;;5047738;28;20032;-43
2022/04/12 00:46:57;;;;;;;9.13;6.93;;;10.40;87.80;;;;;;5047771;28;20024;-41
2022/04/12 00:49:26;;;;;;;9.25;6.53;;;10.40;87.90;;;;;;5046534;28;20017;-41
2022/04/12 00:51:52;;;;;;;10.38;6.63;;;10.40;88.30;;;;;;5047663;28;20036;-42
2022/04/12 00:54:19;;;;;;;10.50;6.90;;;10.30;88.10;;;;;;5047892;28;20490;-41
2022/04/12 00:56:47;;;;;;;9.45;6.90;;;10.30;88.10;;;;;;5046637;28;20040;-42
2022/04/12 00:59:13;;;;;;;9.32;7.05;;;10.30;88.10;;;;;;5046034;28;20045;-43
2022/04/12 01:01:39;;;;;;;8.02;6.50;;;10.30;88.20;;;;;;5047607;28;20036;-42
2022/04/12 01:04:07;;;;;;;8.50;6.45;;;10.30;88.30;;;;;;5045989;28;20061;-43
2022/04/12 01:06:33;;;;;;;7.93;6.45;;;10.30;88.30;;;;;;5047756;28;20036;-41
2022/04/12 01:08:58;;;;;;;9.52;6.43;;;10.20;88.30;;;;;;5046083;28;20037;-42
2022/04/12 01:11:26;;;;;;;9.95;7.50;;;10.20;88.30;;;;;;5047832;28;20432;-42
2022/04/12 01:13:51;;;;;;;8.80;6.60;;;10.20;88.30;;;;;;5046447;28;20067;-41
2022/04/12 01:16:18;;;;;;;9.70;6.95;;;10.20;88.30;;;;;;5046334;28;20111;-40
2022/04/12 01:18:44;;;;;;;7.70;6.47;;;10.20;88.40;;;;;;5046319;28;20075;-41
2022/04/12 01:21:10;;;;;;;8.90;6.20;;;10.20;88.50;;;;;;5047275;28;20021;-43
2022/04/12 01:24:01;;;;;;;7.50;6.22;;;10.20;88.50;;;;;;5046043;28;20083;-42
2022/04/12 01:26:27;;;;;;;9.77;6.18;;;10.10;88.60;;;;;;5043857;28;20032;-43
2022/04/12 01:28:52;;;;;;;7.60;6.43;;;10.10;88.60;;;;;;5046471;28;20628;-42
2022/04/12 01:31:18;;;;;;;7.03;6.07;;;10.10;88.70;;;;;;5046430;28;20032;-42
2022/04/12 01:33:43;;;;;;;8.15;6.60;;;10.10;88.90;;;;;;5046423;28;20447;-42
2022/04/12 01:36:09;;;;;;;8.40;6.18;;;10.00;88.90;;;;;;5046967;28;20047;-42
2022/04/12 01:38:34;;;;;;;8.70;6.30;;;10.00;89.00;;;;;;5045861;28;20512;-41
2022/04/12 01:41:00;;;;;;;8.88;6.60;;;10.00;89.10;;;;;;5046219;28;20021;-41
2022/04/12 01:43:25;;;;;;;8.15;5.78;;;10.00;89.20;;;;;;5047031;28;20064;-41
2022/04/12 01:45:51;;;;;;;8.25;6.05;;;10.00;89.20;;;;;;5045318;28;20496;-42
2022/04/12 01:48:16;;;;;;;8.48;6.47;;;9.90;89.20;;;;;;5047232;28;20033;-42
2022/04/12 01:50:42;;;;;;;7.35;5.53;;;9.90;89.20;;;;;;5046144;28;20025;-42
2022/04/12 01:53:07;;;;;;;9.55;6.47;;;9.90;89.20;;;;;;5046336;28;20090;-43
2022/04/12 01:55:33;;;;;;;8.07;5.50;;;9.90;89.30;;;;;;5047167;28;20025;-43
2022/04/12 01:57:58;;;;;;;6.68;5.40;;;9.90;89.30;;;;;;5045701;28;20144;-42
2022/04/12 02:00:24;;;;;;;8.18;5.80;;;9.90;89.40;;;;;;5045717;28;20028;-43
2022/04/12 02:02:49;;;;;;;8.25;5.57;;;9.90;89.40;;;;;;5045224;28;20125;-42
2022/04/12 02:05:15;;;;;;;6.63;5.63;;;9.80;89.40;;;;;;5045661;28;20040;-40
2022/04/12 02:07:43;;;;;;;8.18;5.32;;;9.80;89.50;;;;;;5046230;28;20025;-41
2022/04/12 02:10:10;;;;;;;7.47;5.60;;;9.80;89.50;;;;;;5046369;28;20044;-42
2022/04/12 02:12:36;;;;;;;7.45;6.10;;;9.80;89.60;;;;;;5045490;28;20162;-42
2022/04/12 02:15:03;;;;;;;6.22;5.50;;;9.80;89.70;;;;;;5045232;28;20107;-41
2022/04/12 02:17:29;;;;;;;5.55;4.75;;;9.80;89.70;;;;;;5046130;28;20052;-40
2022/04/12 02:19:55;;;;;;;9.60;5.60;;;9.80;89.80;;;;;;5044718;28;20029;-42
2022/04/12 02:22:20;;;;;;;7.35;6.07;;;9.70;89.80;;;;;;5046172;28;20530;-42
2022/04/12 02:24:46;;;;;;;6.68;5.43;;;9.70;90.20;;;;;;5045557;28;20032;-42
2022/04/12 02:27:12;;;;;;;6.55;5.50;;;9.70;90.00;;;;;;5044975;28;20033;-42
2022/04/12 02:29:38;;;;;;;6.53;5.00;;;9.70;90.00;;;;;;5046260;28;20025;-41
2022/04/12 02:32:03;;;;;;;5.45;4.68;;;9.70;90.00;;;;;;5044911;28;20021;-42
2022/04/12 02:34:29;;;;;;;7.80;6.15;;;9.70;90.00;;;;;;5045129;28;20591;-42
2022/04/12 02:36:55;;;;;;;6.90;5.13;;;9.60;90.00;;;;;;5045139;28;20087;-42
2022/04/12 02:39:21;;;;;;;5.93;4.90;;;9.60;90.00;;;;;;5045436;28;20072;-42
2022/04/12 02:41:46;;;;;;;6.03;5.03;;;9.60;90.00;;;;;;5044395;28;20094;-41
2022/04/12 02:44:12;;;;;;;6.55;5.28;;;9.60;90.10;;;;;;5046055;28;20385;-43
2022/04/12 02:46:37;;;;;;;7.55;5.28;;;9.70;90.10;;;;;;5045501;28;20111;-43
2022/04/12 02:49:02;;;;;;;7.32;5.65;;;9.60;90.10;;;;;;5044568;28;20028;-42
2022/04/12 02:51:28;;;;;;;6.53;5.38;;;9.60;90.10;;;;;;5045417;28;20093;-41
2022/04/12 02:53:53;;;;;;;7.05;5.18;;;9.60;90.20;;;;;;5045036;28;20029;-42
2022/04/12 02:56:19;;;;;;;6.18;5.10;;;9.60;90.20;;;;;;5044778;28;20099;-41
2022/04/12 02:58:44;;;;;;;7.20;5.10;;;9.60;90.20;;;;;;5045059;28;20569;-40
2022/04/12 03:01:10;;;;;;;4.63;4.18;;;9.60;90.20;;;;;;5045579;28;20025;-42
2022/04/12 03:03:35;;;;;;;7.35;5.40;;;9.60;90.20;;;;;;5044857;28;20024;-42
2022/04/12 03:06:01;;;;;;;6.50;5.20;;;9.60;90.30;;;;;;5045282;28;20437;-42
2022/04/12 03:08:26;;;;;;;7.32;5.07;;;9.50;90.30;;;;;;5044638;28;20050;-42
2022/04/12 03:10:52;;;;;;;7.18;5.38;;;9.60;90.50;;;;;;5045013;28;20052;-42
2022/04/12 03:13:17;;;;;;;6.10;5.10;;;9.50;90.40;;;;;;5047469;28;20662;-43
2022/04/12 03:15:43;;;;;;;8.13;5.53;;;9.50;90.50;;;;;;5048115;28;20335;-43
2022/04/12 03:18:10;;;;;;;6.40;5.47;;;9.50;90.50;;;;;;5049002;28;20049;-43
2022/04/12 03:20:36;;;;;;;8.05;5.28;;;9.50;90.60;;;;;;5049798;28;20102;-41
2022/04/12 03:23:01;;;;;;;7.60;5.20;;;9.40;90.60;;;;;;5048512;28;20473;-41
2022/04/12 03:25:26;;;;;;;8.55;6.10;;;9.40;90.70;;;;;;5049867;28;20505;-41
2022/04/12 03:27:52;;;;;;;6.03;5.18;;;9.40;90.80;;;;;;5048585;28;20021;-41
2022/04/12 03:30:18;;;;;;;9.63;5.75;;;9.40;90.80;;;;;;5048735;28;20045;-42
2022/04/12 03:32:43;;;;;;;7.82;5.55;;;9.40;90.80;;;;;;5048663;28;20045;-43
2022/04/12 03:35:09;;;;;;;6.47;5.00;;;9.40;90.90;;;;;;5049514;28;20066;-41
2022/04/12 03:37:34;;;;;;;7.07;5.55;;;9.30;90.80;;;;;;5048456;28;20094;-43
2022/04/12 03:40:00;;;;;;;6.47;5.13;;;9.30;90.90;;;;;;5048348;28;20032;-41
2022/04/12 03:42:25;;;;;;;8.60;5.32;;;9.30;90.80;;;;;;5049559;28;20025;-41
2022/04/12 03:44:51;;;;;;;7.93;5.43;;;9.30;90.90;;;;;;5047415;28;20079;-41
2022/04/12 03:47:17;;;;;;;7.68;5.55;;;9.30;90.90;;;;;;5049228;28;20029;-40
2022/04/12 03:49:43;;;;;;;7.00;5.78;;;9.30;91.00;;;;;;5048249;28;20022;-39
2022/04/12 03:52:09;;;;;;;7.25;5.13;;;9.30;91.00;;;;;;5048072;28;20029;-37
2022/04/12 03:54:35;;;;;;;5.95;5.22;;;9.20;91.00;;;;;;5049033;28;20033;-39
2022/04/12 03:57:01;;;;;;;8.65;5.65;;;9.20;91.10;;;;;;5048382;28;20365;-41
2022/04/12 03:59:27;;;;;;;7.28;4.82;;;9.20;91.10;;;;;;5048266;28;20063;-42
2022/04/12 04:01:52;;;;;;;7.25;5.32;;;9.20;91.10;;;;;;5047968;28;20074;-42
2022/04/12 04:04:19;;;;;;;8.27;5.40;;;9.20;91.20;;;;;;5048514;28;20128;-42
2022/04/12 04:06:45;;;;;;;6.75;4.85;;;9.20;91.20;;;;;;5047254;28;20025;-42
2022/04/12 04:09:10;;;;;;;5.90;4.95;;;9.20;91.20;;;;;;5048518;28;20468;-43
2022/04/12 04:11:39;;;;;;;6.10;4.88;;;9.10;91.30;;;;;;5048432;28;20036;-43
2022/04/12 04:14:09;;;;;;;8.75;5.47;;;9.10;91.30;;;;;;5047839;28;20139;-42
2022/04/12 04:16:35;;;;;;;7.07;5.20;;;9.20;91.30;;;;;;5048237;28;20033;-42
2022/04/12 04:19:00;;;;;;;6.68;5.15;;;9.10;91.40;;;;;;5047057;28;20036;-43
2022/04/12 04:21:25;;;;;;;6.05;5.05;;;9.20;91.40;;;;;;5048146;28;20522;-43
2022/04/12 04:23:51;;;;;;;6.40;4.70;;;9.10;91.30;;;;;;5047252;28;20017;-43
2022/04/12 04:26:17;;;;;;;6.50;4.95;;;9.10;91.40;;;;;;5043421;28;20529;-40
2022/04/12 04:28:44;;;;;;;8.00;5.38;;;9.10;91.60;;;;;;5047674;28;20021;-43
2022/04/12 04:31:10;;;;;;;6.68;5.22;;;9.10;91.60;;;;;;5048137;28;20029;-41
2022/04/12 04:33:36;;;;;;;6.85;4.90;;;9.10;91.60;;;;;;5047533;28;20036;-42
2022/04/12 04:36:01;;;;;;;7.70;5.43;;;9.10;91.60;;;;;;5047289;28;20057;-42
2022/04/12 04:38:27;;;;;;;6.22;4.82;;;9.10;91.60;;;;;;5047995;28;20073;-41
2022/04/12 04:40:52;;;;;;;8.43;5.40;;;9.10;91.70;;;;;;5046563;28;20032;-41
2022/04/12 04:43:18;;;;;;;8.00;5.50;;;9.10;91.70;;;;;;5048038;28;20033;-41
2022/04/12 04:45:43;;;;;;;8.82;5.28;;;9.10;91.70;;;;;;5047355;28;20098;-42
2022/04/12 04:48:09;;;;;;;6.70;5.03;;;9.20;91.70;;;;;;5047104;28;20021;-42
2022/04/12 04:50:38;;;;;;;6.07;5.18;;;9.20;91.70;;;;;;5047692;28;20029;-42
2022/04/12 04:53:06;;;;;;;8.63;6.07;;;9.10;91.70;;;;;;5047425;28;20043;-40
2022/04/12 04:55:35;;;;;;;8.52;6.10;;;9.10;91.80;;;;;;5047401;28;20033;-42
2022/04/12 04:58:00;;;;;;;9.95;6.10;;;9.10;91.80;;;;;;5047331;28;20890;-42
2022/04/12 05:00:29;;;;;;;7.43;5.70;;;9.10;91.90;;;;;;5047689;28;20025;-42
2022/04/12 05:02:57;;;;;;;9.13;6.78;;;9.20;91.90;;;;;;5046230;28;20060;-42
2022/04/12 05:05:23;;;;;;;8.02;6.30;;;9.20;92.20;;;;;;5047722;28;20032;-43
2022/04/12 05:07:51;;;;;;;10.10;6.57;;;9.20;91.90;;;;;;5047079;28;20032;-42
2022/04/12 05:10:21;;;;;;;8.65;6.18;;;9.20;91.90;;;;;;5046872;28;20036;-43
2022/04/12 05:12:47;;;;;;;8.25;6.25;;;9.20;91.90;;;;;;5046912;28;20029;-43
2022/04/12 05:15:13;;;;;;;7.63;5.93;;;9.20;91.90;;;;;;5047257;28;20518;-43
2022/04/12 05:17:38;;;;;;;8.38;6.38;;;9.20;92.00;;;;;;5047101;28;20123;-43
2022/04/12 05:20:09;;;;;;;7.28;5.97;;;9.20;91.90;;;;;;5047217;28;20025;-43
2022/04/12 05:22:34;;;;;;;8.63;6.60;;;9.20;91.90;;;;;;5046471;28;20037;-42
2022/04/12 05:25:00;;;;;;;8.60;6.15;;;9.30;92.00;;;;;;5046714;28;20437;-43
2022/04/12 05:27:31;;;;;;;7.55;6.07;;;9.30;92.00;;;;;;5046928;28;20029;-43
2022/04/12 05:29:58;;;;;;;6.82;5.32;;;9.30;92.00;;;;;;5045984;28;20017;-41
2022/04/12 05:32:24;;;;;;;7.03;5.30;;;9.30;92.00;;;;;;5047414;28;20031;-40
2022/04/12 05:34:49;;;;;;;5.95;4.70;;;9.30;92.00;;;;;;5046424;28;20600;-42
2022/04/12 05:37:15;;;;;;;7.13;5.43;;;9.30;92.10;;;;;;5046177;28;20071;-42
2022/04/12 05:39:40;;;;;;;8.35;6.10;;;9.30;92.00;;;;;;5047097;28;20025;-43
2022/04/12 05:42:06;;;;;;;7.95;5.70;;;9.40;92.10;;;;;;5046427;28;20479;-43
2022/04/12 05:44:35;;;;;;;6.45;5.38;;;9.40;92.10;;;;;;5046156;28;20123;-38
2022/04/12 05:47:02;;;;;;;6.60;5.30;;;9.40;92.10;;;;;;5058981;28;20968;-42
2022/04/12 05:49:28;;;;;;;15.27;6.13;;;9.50;92.10;;;;;;5046464;28;20029;-43
2022/04/12 05:51:54;;;;;;;8.20;6.13;;;9.50;92.10;;;;;;5045738;28;20036;-42
2022/04/12 05:54:19;;;;;;;7.95;6.15;;;9.50;92.00;;;;;;5046725;28;20339;-40
2022/04/12 05:56:45;;;;;;;6.13;5.47;;;9.50;92.00;;;;;;5042886;28;20029;-42
2022/04/12 05:59:10;;;;;;;6.47;5.25;;;9.60;92.00;;;;;;5043399;28;20052;-41
2022/04/12 06:01:36;;;;;;;7.10;4.80;;;9.60;92.00;;;;;;5045417;28;20495;-43
2022/04/12 06:04:01;;;;;;;7.32;5.63;;;9.70;92.00;;;;;;5044651;28;20415;-42
2022/04/12 06:06:27;;;;;;;7.43;5.22;;;9.70;92.30;;;;;;5045221;28;20072;-42
2022/04/12 06:08:53;;;;;;;6.75;4.70;;;9.70;92.00;;;;;;5045210;28;20792;-43
2022/04/12 06:11:19;;;;;;;5.90;5.30;;;9.70;92.00;;;;;;5044422;28;20020;-42
2022/04/12 06:13:44;;;;;;;8.00;5.20;;;9.70;92.10;;;;;;5045402;28;20093;-41
2022/04/12 06:16:10;;;;;;;6.00;4.90;;;9.70;92.10;;;;;;5045623;28;20032;-42
2022/04/12 06:18:35;;;;;;;7.90;5.90;;;9.60;92.10;;;;;;5044988;28;20052;-40
2022/04/12 06:21:01;;;;;;;6.80;5.65;;;9.60;92.20;;;;;;5044599;28;20082;-42
2022/04/12 06:23:28;;;;;;;8.65;5.78;;;9.50;92.20;;;;;;5045258;28;20024;-41
2022/04/12 06:25:54;;;;;;;6.00;4.90;;;9.50;92.30;;;;;;5044238;28;20036;-42
2022/04/12 06:28:20;;;;;;;8.70;5.25;;;9.50;92.30;;;;;;5045202;28;20025;-42
2022/04/12 06:30:47;;;;;;;6.38;5.30;;;9.50;92.50;;;;;;5045520;28;20029;-43
2022/04/12 06:33:13;;;;;;;8.45;5.93;;;9.40;92.60;;;;;;5045794;28;20029;-42
2022/04/12 06:35:39;;;;;;;12.50;7.18;;;9.40;92.70;;;;;;5046188;28;20025;-43
2022/04/12 06:38:04;;;;;;;7.97;6.93;;;9.40;92.70;;;;;;5045428;28;20037;-42
2022/04/12 06:40:30;;;;;;;9.30;6.57;;;9.40;92.70;;;;;;5044595;28;20037;-42
2022/04/12 06:42:55;;;;;;;11.23;7.43;;;9.40;92.80;;;;;;5044770;28;20033;-42
2022/04/12 06:45:21;;;;;;;8.93;6.72;;;9.50;92.80;;;;;;5045538;28;20035;-41
2022/04/12 06:47:58;;;;;;;7.72;6.05;;;9.50;92.80;;;;;;5043811;28;20024;-41
2022/04/12 06:50:27;;;;;;;8.43;6.30;;;9.50;92.80;;;;;;5045483;28;20550;-44
2022/04/12 06:52:54;;;;;;;7.45;5.35;;;9.60;92.80;;;;;;5045274;28;20037;-42
2022/04/12 06:55:21;;;;;;;8.05;6.53;;;9.60;92.80;;;;;;5044171;28;20048;-43
2022/04/12 06:57:46;;;;;;;7.70;6.13;;;9.70;92.90;;;;;;5044766;28;20632;-42
2022/04/12 07:00:13;;;;;;;7.22;5.93;;;9.80;92.80;;;;;;5045532;28;20064;-41
2022/04/12 07:02:38;;;;;;;8.90;6.43;;;9.80;92.80;;;;;;5043056;28;20485;-43
2022/04/12 07:05:05;;;;;;;10.73;6.75;;;9.90;92.80;;;;;;5044449;28;20032;-43
2022/04/12 07:07:30;;;;;;;9.20;6.47;;;9.90;92.80;;;;;;5044382;28;20021;-43
2022/04/12 07:09:56;;;;;;;9.52;6.70;;;9.90;92.80;;;;;;5044740;28;20376;-43
2022/04/12 07:12:23;;;;;;;7.47;6.30;;;10.00;92.80;;;;;;5045353;28;20384;-41
2022/04/12 07:14:49;;;;;;;8.40;6.38;;;10.00;92.80;;;;;;5043916;28;20043;-42
2022/04/12 07:17:14;;;;;;;8.93;6.72;;;10.00;92.80;;;;;;5045074;28;20041;-42
2022/04/12 07:19:40;;;;;;;8.68;6.70;;;10.00;92.80;;;;;;5045006;28;20033;-42
2022/04/12 07:22:05;;;;;;;7.05;6.07;;;10.00;92.90;;;;;;5044220;28;20060;-43
2022/04/12 07:24:31;;;;;;;10.18;6.50;;;10.10;92.90;;;;;;5045677;28;20017;-42
2022/04/12 07:26:57;;;;;;;7.32;6.00;;;10.20;92.90;;;;;;5044479;28;20035;-43
2022/04/12 07:29:29;;;;;;;7.63;6.35;;;10.20;92.90;;;;;;5044802;28;20102;-43
2022/04/12 07:31:55;;;;;;;7.90;6.13;;;10.30;92.90;;;;;;5044261;28;20029;-40
2022/04/12 07:34:21;;;;;;;8.77;6.75;;;10.40;92.90;;;;;;5044916;28;20037;-42
2022/04/12 07:36:53;;;;;;;7.97;6.47;;;10.50;92.90;;;;;;5043822;28;20020;-42
2022/04/12 07:39:20;;;;;;;7.57;6.38;;;10.60;92.80;;;;;;5045681;28;20045;-42
2022/04/12 07:41:47;;;;;;;8.93;6.18;;;10.70;92.80;;;;;;5044154;28;20033;-42
2022/04/12 07:44:13;;;;;;;11.02;7.10;;;10.70;92.90;;;;;;5044129;28;20113;-42
2022/04/12 07:46:38;;;;;;;8.50;6.93;;;10.80;93.00;;;;;;5045009;28;20029;-43
2022/04/12 07:49:04;;;;;;;9.65;7.75;;;10.90;92.90;;;;;;5044442;28;20029;-40
2022/04/12 07:51:29;;;;;;;8.35;7.15;;;11.00;93.10;;;;;;5044621;28;20025;-42
2022/04/12 07:53:55;;;;;;;9.07;7.03;;;11.10;93.20;;;;;;5044272;28;20040;-42
2022/04/12 07:56:20;;;;;;;8.98;6.35;;;11.10;93.20;;;;;;5044744;28;20013;-43
2022/04/12 07:58:46;;;;;;;7.55;6.75;;;11.20;93.50;;;;;;5044757;28;20087;-43
2022/04/12 08:01:12;;;;;;;7.72;6.10;;;11.30;93.40;;;;;;5048810;28;20112;-42
2022/04/12 08:03:39;;;;;;;8.02;6.60;;;11.30;93.40;;;;;;5048996;28;20024;-43
2022/04/12 08:06:05;;;;;;;7.13;5.97;;;11.40;93.60;;;;;;5047388;28;20044;-43
2022/04/12 08:08:32;;;;;;;8.43;6.30;;;11.50;93.50;;;;;;5048155;28;20024;-43
2022/04/12 08:10:58;;;;;;;8.45;5.63;;;11.60;93.50;;;;;;5047850;28;20518;-43
2022/04/12 08:13:24;;;;;;;9.80;5.40;;;11.70;93.50;;;;;;5048050;28;20065;-43
2022/04/12 08:15:49;;;;;;;8.48;6.18;;;11.70;93.60;;;;;;5048042;28;20021;-42
2022/04/12 08:18:15;;;;;;;7.20;5.57;;;11.80;93.70;;;;;;5047943;28;20041;-43
2022/04/12 08:20:41;;;;;;;7.68;6.28;;;12.00;93.70;;;;;;5047561;28;20353;-41
2022/04/12 08:23:06;;;;;;;6.35;5.47;;;12.10;93.60;;;;;;5048030;28;20020;-42
2022/04/12 08:25:32;;;;;;;6.15;5.03;;;12.20;93.60;;;;;;5047931;28;20032;-42
2022/04/12 08:27:58;;;;;;;5.45;4.70;;;12.30;93.50;;;;;;5045578;28;20033;-42
2022/04/12 08:30:23;;;;;;;6.03;5.00;;;12.40;93.40;;;;;;5048194;28;20461;-42
2022/04/12 08:32:49;;;;;;;6.97;5.05;;;12.50;93.20;;;;;;5046265;28;20078;-43
2022/04/12 08:35:15;;;;;;;7.13;4.65;;;12.60;93.20;;;;;;5048066;28;20025;-42
2022/04/12 08:37:40;;;;;;;5.82;4.85;;;12.70;93.00;;;;;;5047707;28;20583;-42
2022/04/12 08:40:07;;;;;;;5.85;4.55;;;12.70;93.00;;;;;;5047458;28;20041;-43
2022/04/12 08:42:33;;;;;;;7.97;5.60;;;12.80;93.00;;;;;;5047921;28;20023;-42
2022/04/12 08:45:01;;;;;;;5.57;4.30;;;12.90;93.00;;;;;;5047239;28;20017;-42
2022/04/12 08:47:28;;;;;;;6.75;4.88;;;13.00;92.90;;;;;;5047232;28;20033;-42
2022/04/12 08:49:54;;;;;;;5.38;4.25;;;13.10;92.90;;;;;;5046398;28;20723;-42
2022/04/12 08:52:21;;;;;;;6.38;4.18;;;13.20;92.90;;;;;;5048177;28;20036;-43
2022/04/12 08:54:47;;;;;;;9.10;4.75;;;13.30;92.90;;;;;;5046248;28;20513;-43
2022/04/12 08:57:13;;;;;;;6.82;4.80;;;13.30;92.90;;;;;;5047591;28;20515;-41
2022/04/12 08:59:39;;;;;;;6.25;4.75;;;13.40;92.90;;;;;;5047402;28;20091;-41
2022/04/12 09:02:09;;;;;;;8.02;4.43;;;13.50;92.90;;;;;;5046425;28;20484;-41
2022/04/12 09:04:35;;;;;;;7.03;4.68;;;13.50;92.90;;;;;;5047053;28;20031;-43
2022/04/12 09:07:01;;;;;;;8.55;5.18;;;13.60;92.90;;;;;;5046994;28;20040;-42
2022/04/12 09:09:29;;;;;;;5.43;4.55;;;13.70;92.90;;;;;;5046852;28;20021;-42
2022/04/12 09:11:57;;;;;;;8.25;4.88;;;13.70;92.90;;;;;;5046108;28;20439;-43
2022/04/12 09:14:23;;;;;;;7.50;5.55;;;13.70;92.90;;;;;;5046638;28;20090;-43
2022/04/12 09:16:51;;;;;;;5.90;4.40;;;13.80;93.00;;;;;;5046995;28;20025;-42
2022/04/12 09:19:38;;;;;;;8.07;5.97;;;13.80;93.00;;;;;;5047163;28;20048;-43
2022/04/12 09:22:28;;;;;;;7.35;5.45;;;13.90;93.10;;;;;;5046074;28;20032;-44
2022/04/12 09:24:57;;;;;;;7.25;5.07;;;13.90;93.00;;;;;;5045906;28;20651;-42
2022/04/12 09:27:25;;;;;;;7.78;5.90;;;13.90;93.10;;;;;;5047945;28;20352;-42
2022/04/12 09:30:02;;;;;;;7.60;6.13;;;14.00;93.20;;;;;;5046041;28;20033;-43
2022/04/12 09:32:36;;;;;;;8.02;5.32;;;14.10;93.20;;;;;;5047483;28;20031;-41
2022/04/12 09:35:03;;;;;;;7.63;5.70;;;14.10;93.20;;;;;;5046085;28;20111;-43
2022/04/12 09:37:30;;;;;;;6.85;5.25;;;14.20;93.30;;;;;;5046309;28;20029;-42
2022/04/12 09:39:59;;;;;;;6.95;5.20;;;14.30;93.40;;;;;;5046222;28;20361;-43
2022/04/12 09:42:37;;;;;;;8.45;6.03;;;14.30;93.40;;;;;;5046724;28;20029;-42
2022/04/12 09:45:04;;;;;;;8.10;6.10;;;14.40;93.50;;;;;;5046351;28;20441;-43
2022/04/12 09:47:33;;;;;;;7.72;5.28;;;14.50;93.80;;;;;;5045173;28;20536;-42
2022/04/12 09:50:00;;;;;;;6.82;5.15;;;14.60;93.50;;;;;;5044534;28;20021;-42
2022/04/12 09:52:27;;;;;;;7.50;4.88;;;14.70;93.70;;;;;;5045524;28;20025;-43
2022/04/12 09:54:54;;;;;;;8.65;5.53;;;14.70;93.40;;;;;;5044313;28;20035;-42
2022/04/12 09:57:19;;;;;;;5.80;4.57;;;14.80;93.40;;;;;;5044472;28;20033;-41
2022/04/12 09:59:45;;;;;;;5.63;4.47;;;14.90;93.40;;;;;;5044448;28;20068;-43
2022/04/12 10:02:11;;;;;;;6.13;4.57;;;15.00;93.40;;;;;;5045556;28;20100;-42
2022/04/12 10:04:39;;;;;;;6.00;5.13;;;15.00;93.40;;;;;;5045264;28;20053;-42
2022/04/12 10:07:06;;;;;;;5.38;4.22;;;15.10;93.40;;;;;;5045598;28;20027;-42
2022/04/12 10:09:36;;;;;;;8.32;5.10;;;15.10;93.40;;;;;;5045135;28;20025;-43
2022/04/12 10:12:03;;;;;;;4.95;4.05;;;15.30;93.40;;;;;;5044172;28;20029;-43
2022/04/12 10:14:30;;;;;;;6.28;4.10;;;15.30;93.30;;;;;;5045234;28;20027;-43
2022/04/12 10:16:59;;;;;;;5.63;4.10;;;15.30;93.30;;;;;;5045002;28;20047;-40
2022/04/12 10:19:25;;;;;;;6.75;4.30;;;15.40;93.40;;;;;;5044985;28;20408;-41
2022/04/12 10:21:50;;;;;;;5.53;3.85;;;15.50;93.30;;;;;;5044075;28;20025;-41
2022/04/12 10:24:18;;;;;;;6.28;4.22;;;15.60;93.30;;;;;;5045039;28;20538;-42
2022/04/12 10:26:45;;;;;;;6.68;5.00;;;15.70;93.20;;;;;;5044132;28;20037;-40
2022/04/12 10:29:13;;;;;;;6.13;4.45;;;15.80;93.10;;;;;;5046359;28;20040;-42
2022/04/12 10:31:52;;;;;;;4.28;3.50;;;15.90;93.00;;;;;;5045667;28;20029;-42
2022/04/12 10:34:17;;;;;;;4.80;4.15;;;15.90;92.90;;;;;;5046020;28;20207;-40
2022/04/12 10:36:59;;;;;;;4.93;3.67;;;16.10;92.90;;;;;;5044010;28;20447;-39
2022/04/12 10:39:34;;;;;;;5.00;3.75;;;16.10;92.80;;;;;;5035291;28;20036;-41
2022/04/12 10:42:08;;;;;;;7.60;5.18;;;16.20;92.70;;;;;;5045478;28;20051;-41
2022/04/12 10:44:42;;;;;;;6.43;4.30;;;16.20;92.60;;;;;;5044953;28;20147;-42
2022/04/12 10:47:29;;;;;;;5.63;3.90;;;16.40;92.60;;;;;;5044686;28;20028;-42
2022/04/12 10:49:59;;;;;;;5.50;3.58;;;16.50;92.40;;;;;;5045659;28;20407;-44
2022/04/12 10:52:38;;;;;;;5.47;3.33;;;16.50;92.30;;;;;;5046109;28;20029;-41
2022/04/12 10:55:06;;;;;;;3.83;3.30;;;16.60;92.20;;;;;;5044937;28;20033;-41
2022/04/12 10:57:32;;;;;;;7.13;4.10;;;16.70;92.20;;;;;;5044730;28;20457;-41
2022/04/12 11:00:08;;;;;;;4.25;3.30;;;16.80;92.20;;;;;;5045049;28;20036;-42
2022/04/12 11:02:39;;;;;;;5.70;3.60;;;16.80;92.30;;;;;;5046014;28;20110;-42
2022/04/12 11:05:26;;;;;;;4.75;3.67;;;17.00;91.90;;;;;;5040669;28;20029;-41
2022/04/12 11:07:51;;;;;;;6.07;3.85;;;17.00;91.50;;;;;;5032496;28;20036;-41
2022/04/12 11:10:17;;;;;;;4.72;3.70;;;17.10;91.40;;;;;;5046364;28;20102;-42
2022/04/12 11:12:44;;;;;;;4.75;3.70;;;17.20;91.40;;;;;;5044817;28;20053;-42
2022/04/12 11:15:27;;;;;;;5.75;3.92;;;17.20;91.40;;;;;;5044625;28;20017;-44
2022/04/12 11:18:05;;;;;;;5.72;3.63;;;17.30;91.10;;;;;;5044860;28;20029;-42
2022/04/12 11:20:31;;;;;;;5.55;3.25;;;17.40;90.80;;;;;;5045362;28;20560;-42
2022/04/12 11:22:59;;;;;;;5.43;3.70;;;17.50;90.60;;;;;;5044117;28;20024;-43
2022/04/12 11:25:28;;;;;;;5.55;4.07;;;17.50;90.50;;;;;;5045108;28;20545;-42
2022/04/12 11:27:57;;;;;;;4.45;3.63;;;17.60;90.30;;;;;;5043341;28;20025;-43
2022/04/12 11:30:27;;;;;;;5.65;3.83;;;17.60;90.30;;;;;;5044750;28;20040;-41
2022/04/12 11:32:54;;;;;;;4.68;3.95;;;17.70;90.30;;;;;;5044653;28;20027;-43
2022/04/12 11:35:21;;;;;;;4.65;3.67;;;17.90;90.20;;;;;;5048043;28;20075;-42
2022/04/12 11:37:50;;;;;;;6.60;4.30;;;17.90;90.00;;;;;;5048177;28;20025;-41
2022/04/12 11:40:16;;;;;;;6.70;4.70;;;18.10;89.50;;;;;;5048601;28;20848;-43
2022/04/12 11:42:46;;;;;;;7.03;4.32;;;18.30;88.80;;;;;;5048130;28;20029;-43
2022/04/12 11:45:11;;;;;;;7.28;4.03;;;18.50;88.50;;;;;;5049246;28;20108;-43
2022/04/12 11:47:39;;;;;;;5.55;4.10;;;18.60;88.20;;;;;;5048482;28;20120;-43
2022/04/12 11:50:25;;;;;;;4.85;3.40;;;18.70;88.10;;;;;;5047468;28;20111;-42
2022/04/12 11:52:50;;;;;;;5.50;3.95;;;18.90;88.20;;;;;;5048160;28;20033;-43
2022/04/12 11:55:16;;;;;;;5.80;3.83;;;19.00;87.50;;;;;;5048601;28;20031;-42
2022/04/12 11:57:42;;;;;;;6.35;3.75;;;18.90;87.20;;;;;;5047654;28;20029;-43
2022/04/12 12:00:08;;;;;;;6.70;4.07;;;19.00;87.70;;;;;;5048520;28;20021;-43
2022/04/12 12:02:38;;;;;;;5.63;3.58;;;19.00;86.90;;;;;;5048867;28;20362;-42
2022/04/12 12:05:07;;;;;;;6.30;4.53;;;19.00;86.70;;;;;;5047590;28;20020;-42
2022/04/12 12:07:36;;;;;;;4.72;3.70;;;19.10;86.10;;;;;;5048835;28;20025;-42
2022/04/12 12:10:11;;;;;;;7.38;4.40;;;19.00;86.30;;;;;;5047153;28;20025;-42
2022/04/12 12:12:42;;;;;;;6.05;3.78;;;19.00;86.20;;;;;;5048121;28;20471;-43
2022/04/12 12:15:28;;;;;;;4.82;3.67;;;19.00;86.60;;;;;;5048569;28;20041;-42
2022/04/12 12:17:58;;;;;;;4.90;3.40;;;19.10;87.20;;;;;;5047018;28;20040;-42
2022/04/12 12:20:25;;;;;;;4.13;3.50;;;19.00;87.30;;;;;;5048265;28;20026;-42
2022/04/12 12:22:55;;;;;;;5.13;3.70;;;19.10;87.00;;;;;;5047918;28;20029;-43
2022/04/12 12:25:35;;;;;;;5.53;3.75;;;19.20;86.70;;;;;;5047283;28;20013;-43
2022/04/12 12:28:00;;;;;;;4.70;3.20;;;19.20;86.60;;;;;;5038125;28;20840;-41
2022/04/12 12:30:32;;;;;;;4.88;3.53;;;19.30;86.20;;;;;;5048697;28;20099;-40
2022/04/12 12:32:57;;;;;;;4.40;3.10;;;19.30;85.80;;;;;;5034755;28;20499;-42
2022/04/12 12:35:28;;;;;;;3.92;3.03;;;19.40;85.30;;;;;;5046452;28;20029;-41
2022/04/12 12:38:11;;;;;;;4.15;3.08;;;19.50;85.20;;;;;;5045298;28;20032;-42
2022/04/12 12:40:38;;;;;;;3.72;2.80;;;19.60;85.30;;;;;;5046130;28;20135;-41
2022/04/12 12:43:06;;;;;;;3.53;2.65;;;19.70;85.00;;;;;;5045575;28;20021;-43
2022/04/12 12:45:35;;;;;;;5.13;2.58;;;19.70;85.20;;;;;;5045830;28;20044;-42
2022/04/12 12:48:00;;;;;;;5.18;3.17;;;19.70;85.40;;;;;;5046748;28;20919;-43
2022/04/12 12:50:27;;;;;;;5.43;3.20;;;19.80;84.90;;;;;;5047430;28;20037;-41
2022/04/12 12:52:59;;;;;;;6.28;3.50;;;19.80;84.30;;;;;;5046668;28;20025;-44